sensor_id;sensor_type;location;lat;lon;timestamp;P1;durP1;ratioP1;P2;durP2;ratioP2
74789;SDS011;63318;52.406;13.416;2023-03-12T00:01:02;4.40;;;1.10;;
74789;SDS011;63318;52.406;13.416;2023-03-12T00:03:38;3.20;;;1.10;;
74789;SDS011;63318;52.406;13.416;2023-03-12T00:06:07;3.60;;;1.00;;
74789;SDS011;63318;52.406;13.416;2023-03-12T00:08:35;4.10;;;1.00;;
74789;SDS011;63318;52.406;13.416;2023-03-12T00:11:08;4.50;;;1.20;;
74789;SDS011;63318;52.406;13.416;2023-03-12T00:13:38;4.10;;;1.40;;
74789;SDS011;63318;52.406;13.416;2023-03-12T00:16:08;3.20;;;1.10;;
74789;SDS011;63318;52.406;13.416;2023-03-12T00:18:38;4.00;;;1.30;;
74789;SDS011;63318;52.406;13.416;2023-03-12T00:21:07;3.90;;;1.10;;
74789;SDS011;63318;52.406;13.416;2023-03-12T00:23:36;3.90;;;1.00;;
74789;SDS011;63318;52.406;13.416;2023-03-12T00:26:05;3.60;;;1.20;;
74789;SDS011;63318;52.406;13.416;2023-03-12T00:28:36;3.50;;;1.30;;
74789;SDS011;63318;52.406;13.416;2023-03-12T00:31:12;3.60;;;1.20;;
74789;SDS011;63318;52.406;13.416;2023-03-12T00:33:42;6.10;;;1.60;;
74789;SDS011;63318;52.406;13.416;2023-03-12T00:36:10;2.80;;;0.90;;
74789;SDS011;63318;52.406;13.416;2023-03-12T00:38:39;6.00;;;1.70;;
74789;SDS011;63318;52.406;13.416;2023-03-12T00:41:08;4.40;;;1.60;;
74789;SDS011;63318;52.406;13.416;2023-03-12T00:43:36;3.70;;;1.10;;
74789;SDS011;63318;52.406;13.416;2023-03-12T00:46:05;4.80;;;1.60;;
74789;SDS011;63318;52.406;13.416;2023-03-12T00:48:33;3.80;;;0.90;;
74789;SDS011;63318;52.406;13.416;2023-03-12T00:51:01;3.60;;;1.20;;
74789;SDS011;63318;52.406;13.416;2023-03-12T00:53:30;3.90;;;0.90;;
74789;SDS011;63318;52.406;13.416;2023-03-12T00:55:59;2.80;;;0.90;;
74789;SDS011;63318;52.406;13.416;2023-03-12T00:58:27;3.10;;;1.00;;
74789;SDS011;63318;52.406;13.416;2023-03-12T01:00:55;3.70;;;1.30;;
74789;SDS011;63318;52.406;13.416;2023-03-12T01:03:24;3.40;;;1.20;;
74789;SDS011;63318;52.406;13.416;2023-03-12T01:05:53;4.00;;;1.00;;
74789;SDS011;63318;52.406;13.416;2023-03-12T01:08:22;3.80;;;1.00;;
74789;SDS011;63318;52.406;13.416;2023-03-12T01:10:50;2.20;;;0.90;;
74789;SDS011;63318;52.406;13.416;2023-03-12T01:13:19;5.10;;;1.10;;
74789;SDS011;63318;52.406;13.416;2023-03-12T01:15:48;4.50;;;1.10;;
74789;SDS011;63318;52.406;13.416;2023-03-12T01:18:16;5.30;;;1.30;;
74789;SDS011;63318;52.406;13.416;2023-03-12T01:20:45;2.60;;;1.10;;
74789;SDS011;63318;52.406;13.416;2023-03-12T01:23:13;3.40;;;1.20;;
74789;SDS011;63318;52.406;13.416;2023-03-12T01:25:42;2.80;;;1.10;;
74789;SDS011;63318;52.406;13.416;2023-03-12T01:28:10;5.20;;;1.10;;
74789;SDS011;63318;52.406;13.416;2023-03-12T01:30:39;3.70;;;1.00;;
74789;SDS011;63318;52.406;13.416;2023-03-12T01:33:07;12.30;;;2.60;;
74789;SDS011;63318;52.406;13.416;2023-03-12T01:35:36;5.30;;;1.30;;
74789;SDS011;63318;52.406;13.416;2023-03-12T01:38:05;3.00;;;1.00;;
74789;SDS011;63318;52.406;13.416;2023-03-12T01:40:37;8.00;;;1.40;;
74789;SDS011;63318;52.406;13.416;2023-03-12T01:48:49;4.90;;;1.70;;
74789;SDS011;63318;52.406;13.416;2023-03-12T01:51:20;4.40;;;1.40;;
74789;SDS011;63318;52.406;13.416;2023-03-12T01:53:50;3.40;;;1.20;;
74789;SDS011;63318;52.406;13.416;2023-03-12T01:56:23;9.20;;;1.70;;
74789;SDS011;63318;52.406;13.416;2023-03-12T02:01:28;4.60;;;1.20;;
74789;SDS011;63318;52.406;13.416;2023-03-12T02:04:00;4.30;;;1.40;;
74789;SDS011;63318;52.406;13.416;2023-03-12T02:06:32;3.30;;;1.00;;
74789;SDS011;63318;52.406;13.416;2023-03-12T02:09:04;7.80;;;1.50;;
74789;SDS011;63318;52.406;13.416;2023-03-12T02:11:33;5.90;;;1.40;;
74789;SDS011;63318;52.406;13.416;2023-03-12T02:14:01;3.30;;;0.90;;
74789;SDS011;63318;52.406;13.416;2023-03-12T02:16:29;3.90;;;1.30;;
74789;SDS011;63318;52.406;13.416;2023-03-12T02:18:58;4.80;;;1.30;;
74789;SDS011;63318;52.406;13.416;2023-03-12T02:21:30;6.70;;;1.40;;
74789;SDS011;63318;52.406;13.416;2023-03-12T02:24:01;4.00;;;1.50;;
74789;SDS011;63318;52.406;13.416;2023-03-12T02:26:37;3.20;;;1.10;;
74789;SDS011;63318;52.406;13.416;2023-03-12T02:29:06;4.40;;;1.30;;
74789;SDS011;63318;52.406;13.416;2023-03-12T02:31:36;5.00;;;1.30;;
74789;SDS011;63318;52.406;13.416;2023-03-12T02:34:08;5.30;;;1.30;;
74789;SDS011;63318;52.406;13.416;2023-03-12T02:36:37;3.00;;;1.10;;
74789;SDS011;63318;52.406;13.416;2023-03-12T02:39:05;4.90;;;1.10;;
74789;SDS011;63318;52.406;13.416;2023-03-12T02:41:37;4.80;;;1.20;;
74789;SDS011;63318;52.406;13.416;2023-03-12T02:44:09;5.40;;;1.30;;
74789;SDS011;63318;52.406;13.416;2023-03-12T02:46:42;3.70;;;1.30;;
74789;SDS011;63318;52.406;13.416;2023-03-12T02:49:12;4.50;;;1.40;;
74789;SDS011;63318;52.406;13.416;2023-03-12T02:51:42;4.50;;;1.40;;
74789;SDS011;63318;52.406;13.416;2023-03-12T02:54:11;7.50;;;1.90;;
74789;SDS011;63318;52.406;13.416;2023-03-12T02:56:41;7.40;;;1.70;;
74789;SDS011;63318;52.406;13.416;2023-03-12T02:59:13;4.60;;;1.40;;
74789;SDS011;63318;52.406;13.416;2023-03-12T03:01:42;4.80;;;1.70;;
74789;SDS011;63318;52.406;13.416;2023-03-12T03:04:11;5.50;;;1.10;;
74789;SDS011;63318;52.406;13.416;2023-03-12T03:06:40;4.90;;;1.80;;
74789;SDS011;63318;52.406;13.416;2023-03-12T03:09:10;3.60;;;1.10;;
74789;SDS011;63318;52.406;13.416;2023-03-12T03:11:38;5.20;;;1.50;;
74789;SDS011;63318;52.406;13.416;2023-03-12T03:14:06;4.10;;;1.50;;
74789;SDS011;63318;52.406;13.416;2023-03-12T03:16:35;5.70;;;1.60;;
74789;SDS011;63318;52.406;13.416;2023-03-12T03:19:03;7.20;;;1.80;;
74789;SDS011;63318;52.406;13.416;2023-03-12T03:21:32;8.20;;;1.50;;
74789;SDS011;63318;52.406;13.416;2023-03-12T03:24:00;3.70;;;1.40;;
74789;SDS011;63318;52.406;13.416;2023-03-12T03:26:29;5.00;;;1.20;;
74789;SDS011;63318;52.406;13.416;2023-03-12T03:28:57;6.60;;;2.10;;
74789;SDS011;63318;52.406;13.416;2023-03-12T03:31:26;8.60;;;1.40;;
74789;SDS011;63318;52.406;13.416;2023-03-12T03:33:54;6.80;;;1.70;;
74789;SDS011;63318;52.406;13.416;2023-03-12T03:36:22;4.40;;;1.50;;
74789;SDS011;63318;52.406;13.416;2023-03-12T03:38:50;6.30;;;1.70;;
74789;SDS011;63318;52.406;13.416;2023-03-12T03:41:19;4.10;;;1.30;;
74789;SDS011;63318;52.406;13.416;2023-03-12T03:43:48;6.60;;;1.70;;
74789;SDS011;63318;52.406;13.416;2023-03-12T03:46:16;4.00;;;1.30;;
74789;SDS011;63318;52.406;13.416;2023-03-12T03:48:45;3.40;;;1.00;;
74789;SDS011;63318;52.406;13.416;2023-03-12T03:51:13;6.20;;;1.60;;
74789;SDS011;63318;52.406;13.416;2023-03-12T03:53:42;5.40;;;1.30;;
74789;SDS011;63318;52.406;13.416;2023-03-12T03:56:12;4.50;;;1.70;;
74789;SDS011;63318;52.406;13.416;2023-03-12T03:58:41;3.20;;;1.10;;
74789;SDS011;63318;52.406;13.416;2023-03-12T04:01:10;5.70;;;1.40;;
74789;SDS011;63318;52.406;13.416;2023-03-12T04:03:41;4.00;;;1.40;;
74789;SDS011;63318;52.406;13.416;2023-03-12T04:06:10;3.70;;;1.40;;
74789;SDS011;63318;52.406;13.416;2023-03-12T04:08:39;7.70;;;1.40;;
74789;SDS011;63318;52.406;13.416;2023-03-12T04:11:08;4.10;;;1.40;;
74789;SDS011;63318;52.406;13.416;2023-03-12T04:13:38;4.50;;;1.60;;
74789;SDS011;63318;52.406;13.416;2023-03-12T04:16:07;5.90;;;1.40;;
74789;SDS011;63318;52.406;13.416;2023-03-12T04:18:37;3.40;;;1.50;;
74789;SDS011;63318;52.406;13.416;2023-03-12T04:21:06;4.40;;;1.20;;
74789;SDS011;63318;52.406;13.416;2023-03-12T04:23:36;4.50;;;1.50;;
74789;SDS011;63318;52.406;13.416;2023-03-12T04:26:05;4.20;;;1.50;;
74789;SDS011;63318;52.406;13.416;2023-03-12T04:28:34;4.00;;;1.50;;
74789;SDS011;63318;52.406;13.416;2023-03-12T04:31:03;7.60;;;2.00;;
74789;SDS011;63318;52.406;13.416;2023-03-12T04:33:34;4.60;;;1.60;;
74789;SDS011;63318;52.406;13.416;2023-03-12T04:36:04;4.70;;;1.50;;
74789;SDS011;63318;52.406;13.416;2023-03-12T04:38:34;10.90;;;1.70;;
74789;SDS011;63318;52.406;13.416;2023-03-12T04:41:03;8.30;;;2.40;;
74789;SDS011;63318;52.406;13.416;2023-03-12T04:43:33;9.00;;;2.30;;
74789;SDS011;63318;52.406;13.416;2023-03-12T04:46:02;5.50;;;1.80;;
74789;SDS011;63318;52.406;13.416;2023-03-12T04:48:31;4.30;;;1.90;;
74789;SDS011;63318;52.406;13.416;2023-03-12T04:51:00;4.30;;;2.10;;
74789;SDS011;63318;52.406;13.416;2023-03-12T04:53:29;9.00;;;2.20;;
74789;SDS011;63318;52.406;13.416;2023-03-12T04:55:58;7.60;;;2.50;;
74789;SDS011;63318;52.406;13.416;2023-03-12T04:58:27;5.30;;;2.30;;
74789;SDS011;63318;52.406;13.416;2023-03-12T05:00:56;5.60;;;2.30;;
74789;SDS011;63318;52.406;13.416;2023-03-12T05:03:24;7.90;;;2.10;;
74789;SDS011;63318;52.406;13.416;2023-03-12T05:05:53;5.80;;;2.40;;
74789;SDS011;63318;52.406;13.416;2023-03-12T05:08:22;6.10;;;2.20;;
74789;SDS011;63318;52.406;13.416;2023-03-12T05:10:50;5.00;;;1.90;;
74789;SDS011;63318;52.406;13.416;2023-03-12T05:13:20;6.10;;;2.60;;
74789;SDS011;63318;52.406;13.416;2023-03-12T05:15:48;6.00;;;2.40;;
74789;SDS011;63318;52.406;13.416;2023-03-12T05:18:17;8.20;;;2.50;;
74789;SDS011;63318;52.406;13.416;2023-03-12T05:20:45;7.20;;;2.70;;
74789;SDS011;63318;52.406;13.416;2023-03-12T05:23:22;8.40;;;2.60;;
74789;SDS011;63318;52.406;13.416;2023-03-12T05:25:51;5.60;;;2.50;;
74789;SDS011;63318;52.406;13.416;2023-03-12T05:28:19;6.90;;;2.10;;
74789;SDS011;63318;52.406;13.416;2023-03-12T05:30:48;7.80;;;2.90;;
74789;SDS011;63318;52.406;13.416;2023-03-12T05:33:17;6.80;;;2.20;;
74789;SDS011;63318;52.406;13.416;2023-03-12T05:35:45;5.90;;;2.20;;
74789;SDS011;63318;52.406;13.416;2023-03-12T05:38:13;6.70;;;2.60;;
74789;SDS011;63318;52.406;13.416;2023-03-12T05:40:42;6.20;;;2.00;;
74789;SDS011;63318;52.406;13.416;2023-03-12T05:43:16;7.90;;;2.10;;
74789;SDS011;63318;52.406;13.416;2023-03-12T05:45:44;5.80;;;2.40;;
74789;SDS011;63318;52.406;13.416;2023-03-12T05:48:13;6.60;;;2.20;;
74789;SDS011;63318;52.406;13.416;2023-03-12T05:50:42;6.40;;;2.40;;
74789;SDS011;63318;52.406;13.416;2023-03-12T05:53:10;5.90;;;2.20;;
74789;SDS011;63318;52.406;13.416;2023-03-12T05:55:39;5.40;;;2.00;;
74789;SDS011;63318;52.406;13.416;2023-03-12T05:58:08;5.80;;;1.90;;
74789;SDS011;63318;52.406;13.416;2023-03-12T06:00:36;4.60;;;2.10;;
74789;SDS011;63318;52.406;13.416;2023-03-12T06:03:06;5.20;;;2.00;;
74789;SDS011;63318;52.406;13.416;2023-03-12T06:05:35;4.80;;;2.30;;
74789;SDS011;63318;52.406;13.416;2023-03-12T06:08:04;5.70;;;2.00;;
74789;SDS011;63318;52.406;13.416;2023-03-12T06:10:33;6.60;;;2.10;;
74789;SDS011;63318;52.406;13.416;2023-03-12T06:13:02;6.10;;;2.20;;
74789;SDS011;63318;52.406;13.416;2023-03-12T06:15:30;4.60;;;1.70;;
74789;SDS011;63318;52.406;13.416;2023-03-12T06:18:00;5.30;;;1.80;;
74789;SDS011;63318;52.406;13.416;2023-03-12T06:20:29;5.50;;;2.20;;
74789;SDS011;63318;52.406;13.416;2023-03-12T06:22:57;5.40;;;2.00;;
74789;SDS011;63318;52.406;13.416;2023-03-12T06:25:26;7.10;;;2.10;;
74789;SDS011;63318;52.406;13.416;2023-03-12T06:27:54;4.30;;;1.60;;
74789;SDS011;63318;52.406;13.416;2023-03-12T06:30:22;5.00;;;1.80;;
74789;SDS011;63318;52.406;13.416;2023-03-12T06:32:51;4.70;;;1.50;;
74789;SDS011;63318;52.406;13.416;2023-03-12T06:35:20;6.00;;;1.70;;
74789;SDS011;63318;52.406;13.416;2023-03-12T06:37:48;6.70;;;1.60;;
74789;SDS011;63318;52.406;13.416;2023-03-12T06:40:16;3.80;;;1.80;;
74789;SDS011;63318;52.406;13.416;2023-03-12T06:42:45;4.10;;;1.80;;
74789;SDS011;63318;52.406;13.416;2023-03-12T06:45:13;5.90;;;2.10;;
74789;SDS011;63318;52.406;13.416;2023-03-12T06:47:42;4.10;;;1.40;;
74789;SDS011;63318;52.406;13.416;2023-03-12T06:50:10;10.30;;;1.80;;
74789;SDS011;63318;52.406;13.416;2023-03-12T06:52:39;6.00;;;1.30;;
74789;SDS011;63318;52.406;13.416;2023-03-12T06:55:08;5.10;;;1.30;;
74789;SDS011;63318;52.406;13.416;2023-03-12T06:57:36;4.70;;;1.60;;
74789;SDS011;63318;52.406;13.416;2023-03-12T07:00:07;5.00;;;1.60;;
74789;SDS011;63318;52.406;13.416;2023-03-12T07:02:36;3.70;;;1.20;;
74789;SDS011;63318;52.406;13.416;2023-03-12T07:05:06;4.80;;;1.70;;
74789;SDS011;63318;52.406;13.416;2023-03-12T07:07:35;3.80;;;1.40;;
74789;SDS011;63318;52.406;13.416;2023-03-12T07:10:05;5.00;;;1.60;;
74789;SDS011;63318;52.406;13.416;2023-03-12T07:12:36;6.60;;;1.40;;
74789;SDS011;63318;52.406;13.416;2023-03-12T07:15:05;5.00;;;1.50;;
74789;SDS011;63318;52.406;13.416;2023-03-12T07:17:34;4.40;;;1.10;;
74789;SDS011;63318;52.406;13.416;2023-03-12T07:20:03;6.10;;;1.30;;
74789;SDS011;63318;52.406;13.416;2023-03-12T07:22:33;5.30;;;1.60;;
74789;SDS011;63318;52.406;13.416;2023-03-12T07:25:01;5.80;;;0.90;;
74789;SDS011;63318;52.406;13.416;2023-03-12T07:27:30;3.60;;;1.40;;
74789;SDS011;63318;52.406;13.416;2023-03-12T07:29:59;5.20;;;1.20;;
74789;SDS011;63318;52.406;13.416;2023-03-12T07:32:28;4.40;;;1.00;;
74789;SDS011;63318;52.406;13.416;2023-03-12T07:34:57;3.80;;;1.20;;
74789;SDS011;63318;52.406;13.416;2023-03-12T07:37:25;4.00;;;1.40;;
74789;SDS011;63318;52.406;13.416;2023-03-12T07:39:54;4.50;;;1.20;;
74789;SDS011;63318;52.406;13.416;2023-03-12T07:42:22;5.80;;;1.60;;
74789;SDS011;63318;52.406;13.416;2023-03-12T07:44:50;5.30;;;1.40;;
74789;SDS011;63318;52.406;13.416;2023-03-12T07:47:19;5.60;;;1.60;;
74789;SDS011;63318;52.406;13.416;2023-03-12T07:49:48;5.70;;;1.70;;
74789;SDS011;63318;52.406;13.416;2023-03-12T07:52:16;3.80;;;1.60;;
74789;SDS011;63318;52.406;13.416;2023-03-12T07:54:45;3.90;;;1.50;;
74789;SDS011;63318;52.406;13.416;2023-03-12T07:57:13;4.50;;;1.90;;
74789;SDS011;63318;52.406;13.416;2023-03-12T07:59:42;4.30;;;1.80;;
74789;SDS011;63318;52.406;13.416;2023-03-12T08:02:10;6.80;;;1.90;;
74789;SDS011;63318;52.406;13.416;2023-03-12T08:04:39;4.00;;;1.90;;
74789;SDS011;63318;52.406;13.416;2023-03-12T08:07:07;7.20;;;1.70;;
74789;SDS011;63318;52.406;13.416;2023-03-12T08:09:36;7.10;;;2.30;;
74789;SDS011;63318;52.406;13.416;2023-03-12T08:12:07;8.00;;;2.00;;
74789;SDS011;63318;52.406;13.416;2023-03-12T08:14:36;7.80;;;2.30;;
74789;SDS011;63318;52.406;13.416;2023-03-12T08:17:05;6.30;;;1.70;;
74789;SDS011;63318;52.406;13.416;2023-03-12T08:19:34;5.90;;;2.20;;
74789;SDS011;63318;52.406;13.416;2023-03-12T08:22:02;5.70;;;2.10;;
74789;SDS011;63318;52.406;13.416;2023-03-12T08:24:31;6.00;;;1.90;;
74789;SDS011;63318;52.406;13.416;2023-03-12T08:27:01;6.20;;;1.70;;
74789;SDS011;63318;52.406;13.416;2023-03-12T08:29:29;6.80;;;2.10;;
74789;SDS011;63318;52.406;13.416;2023-03-12T08:31:57;10.40;;;2.40;;
74789;SDS011;63318;52.406;13.416;2023-03-12T08:34:26;6.50;;;2.10;;
74789;SDS011;63318;52.406;13.416;2023-03-12T08:36:57;8.80;;;2.30;;
74789;SDS011;63318;52.406;13.416;2023-03-12T08:39:29;6.10;;;2.00;;
74789;SDS011;63318;52.406;13.416;2023-03-12T08:41:58;6.10;;;2.10;;
74789;SDS011;63318;52.406;13.416;2023-03-12T08:44:27;6.40;;;2.40;;
74789;SDS011;63318;52.406;13.416;2023-03-12T08:46:55;6.60;;;1.80;;
74789;SDS011;63318;52.406;13.416;2023-03-12T08:49:24;6.60;;;2.30;;
74789;SDS011;63318;52.406;13.416;2023-03-12T08:51:53;4.80;;;1.90;;
74789;SDS011;63318;52.406;13.416;2023-03-12T08:54:22;5.70;;;2.20;;
74789;SDS011;63318;52.406;13.416;2023-03-12T08:56:51;6.60;;;1.70;;
74789;SDS011;63318;52.406;13.416;2023-03-12T08:59:22;5.70;;;1.70;;
74789;SDS011;63318;52.406;13.416;2023-03-12T09:01:50;7.00;;;1.80;;
74789;SDS011;63318;52.406;13.416;2023-03-12T09:04:19;5.00;;;2.00;;
74789;SDS011;63318;52.406;13.416;2023-03-12T09:06:48;4.60;;;1.60;;
74789;SDS011;63318;52.406;13.416;2023-03-12T09:09:16;5.40;;;1.60;;
74789;SDS011;63318;52.406;13.416;2023-03-12T09:11:45;6.10;;;1.40;;
74789;SDS011;63318;52.406;13.416;2023-03-12T09:14:13;5.50;;;1.80;;
74789;SDS011;63318;52.406;13.416;2023-03-12T09:16:41;5.50;;;1.60;;
74789;SDS011;63318;52.406;13.416;2023-03-12T09:19:10;6.40;;;1.70;;
74789;SDS011;63318;52.406;13.416;2023-03-12T09:21:39;4.10;;;1.40;;
74789;SDS011;63318;52.406;13.416;2023-03-12T09:24:08;5.10;;;1.40;;
74789;SDS011;63318;52.406;13.416;2023-03-12T09:26:37;6.70;;;1.40;;
74789;SDS011;63318;52.406;13.416;2023-03-12T09:29:05;6.30;;;1.40;;
74789;SDS011;63318;52.406;13.416;2023-03-12T09:31:33;6.30;;;1.60;;
74789;SDS011;63318;52.406;13.416;2023-03-12T09:34:02;3.60;;;1.30;;
74789;SDS011;63318;52.406;13.416;2023-03-12T09:36:31;4.10;;;1.30;;
74789;SDS011;63318;52.406;13.416;2023-03-12T09:39:00;3.10;;;1.20;;
74789;SDS011;63318;52.406;13.416;2023-03-12T09:41:30;4.70;;;1.30;;
74789;SDS011;63318;52.406;13.416;2023-03-12T09:44:03;4.30;;;1.40;;
74789;SDS011;63318;52.406;13.416;2023-03-12T09:46:37;3.40;;;1.20;;
74789;SDS011;63318;52.406;13.416;2023-03-12T09:49:13;5.60;;;1.60;;
74789;SDS011;63318;52.406;13.416;2023-03-12T09:51:56;3.80;;;1.20;;
74789;SDS011;63318;52.406;13.416;2023-03-12T09:54:28;3.60;;;1.50;;
74789;SDS011;63318;52.406;13.416;2023-03-12T09:57:08;4.50;;;1.20;;
74789;SDS011;63318;52.406;13.416;2023-03-12T09:59:40;4.00;;;1.30;;
74789;SDS011;63318;52.406;13.416;2023-03-12T10:02:17;3.90;;;1.30;;
74789;SDS011;63318;52.406;13.416;2023-03-12T10:07:33;3.20;;;1.10;;
74789;SDS011;63318;52.406;13.416;2023-03-12T10:10:21;4.90;;;0.90;;
74789;SDS011;63318;52.406;13.416;2023-03-12T10:13:06;3.10;;;1.00;;
74789;SDS011;63318;52.406;13.416;2023-03-12T10:15:45;4.50;;;1.00;;
74789;SDS011;63318;52.406;13.416;2023-03-12T10:18:23;3.70;;;1.00;;
74789;SDS011;63318;52.406;13.416;2023-03-12T10:21:07;4.80;;;1.80;;
74789;SDS011;63318;52.406;13.416;2023-03-12T10:23:46;2.90;;;1.00;;
74789;SDS011;63318;52.406;13.416;2023-03-12T10:28:56;1.40;;;0.70;;
74789;SDS011;63318;52.406;13.416;2023-03-12T10:31:27;3.90;;;1.20;;
74789;SDS011;63318;52.406;13.416;2023-03-12T10:34:00;4.60;;;1.00;;
74789;SDS011;63318;52.406;13.416;2023-03-12T10:39:08;4.70;;;1.20;;
74789;SDS011;63318;52.406;13.416;2023-03-12T10:41:40;3.40;;;1.00;;
74789;SDS011;63318;52.406;13.416;2023-03-12T10:44:13;2.90;;;1.00;;
74789;SDS011;63318;52.406;13.416;2023-03-12T10:46:49;5.30;;;1.00;;
74789;SDS011;63318;52.406;13.416;2023-03-12T10:49:24;3.90;;;1.10;;
74789;SDS011;63318;52.406;13.416;2023-03-12T10:51:54;4.70;;;1.10;;
74789;SDS011;63318;52.406;13.416;2023-03-12T10:54:29;3.60;;;1.20;;
74789;SDS011;63318;52.406;13.416;2023-03-12T10:57:01;5.30;;;1.30;;
74789;SDS011;63318;52.406;13.416;2023-03-12T10:59:31;9.60;;;1.40;;
74789;SDS011;63318;52.406;13.416;2023-03-12T11:02:01;5.80;;;1.30;;
74789;SDS011;63318;52.406;13.416;2023-03-12T11:04:51;3.80;;;1.40;;
74789;SDS011;63318;52.406;13.416;2023-03-12T11:07:20;6.70;;;1.50;;
74789;SDS011;63318;52.406;13.416;2023-03-12T11:10:10;6.30;;;1.60;;
74789;SDS011;63318;52.406;13.416;2023-03-12T11:12:49;4.70;;;1.40;;
74789;SDS011;63318;52.406;13.416;2023-03-12T11:17:49;4.30;;;1.40;;
74789;SDS011;63318;52.406;13.416;2023-03-12T11:20:22;3.80;;;1.50;;
74789;SDS011;63318;52.406;13.416;2023-03-12T11:22:54;3.80;;;1.40;;
74789;SDS011;63318;52.406;13.416;2023-03-12T11:25:23;5.70;;;1.60;;
74789;SDS011;63318;52.406;13.416;2023-03-12T11:27:54;4.10;;;1.50;;
74789;SDS011;63318;52.406;13.416;2023-03-12T11:30:28;4.00;;;1.50;;
74789;SDS011;63318;52.406;13.416;2023-03-12T11:33:02;5.10;;;1.90;;
74789;SDS011;63318;52.406;13.416;2023-03-12T11:35:32;4.20;;;1.60;;
74789;SDS011;63318;52.406;13.416;2023-03-12T11:38:12;4.40;;;1.70;;
74789;SDS011;63318;52.406;13.416;2023-03-12T11:40:55;5.80;;;1.70;;
74789;SDS011;63318;52.406;13.416;2023-03-12T11:43:48;4.60;;;1.60;;
74789;SDS011;63318;52.406;13.416;2023-03-12T11:46:28;5.50;;;1.40;;
74789;SDS011;63318;52.406;13.416;2023-03-12T11:49:05;5.40;;;1.80;;
74789;SDS011;63318;52.406;13.416;2023-03-12T11:52:15;5.60;;;2.10;;
74789;SDS011;63318;52.406;13.416;2023-03-12T11:55:00;6.10;;;1.70;;
74789;SDS011;63318;52.406;13.416;2023-03-12T11:57:44;5.00;;;2.00;;
74789;SDS011;63318;52.406;13.416;2023-03-12T12:00:22;6.10;;;1.80;;
74789;SDS011;63318;52.406;13.416;2023-03-12T12:03:17;4.00;;;1.70;;
74789;SDS011;63318;52.406;13.416;2023-03-12T12:05:58;3.30;;;1.60;;
74789;SDS011;63318;52.406;13.416;2023-03-12T12:08:38;4.10;;;1.50;;
74789;SDS011;63318;52.406;13.416;2023-03-12T12:11:18;4.20;;;1.60;;
74789;SDS011;63318;52.406;13.416;2023-03-12T12:13:56;4.80;;;1.50;;
74789;SDS011;63318;52.406;13.416;2023-03-12T12:16:39;4.30;;;1.40;;
74789;SDS011;63318;52.406;13.416;2023-03-12T12:19:18;4.40;;;1.40;;
74789;SDS011;63318;52.406;13.416;2023-03-12T12:22:07;4.20;;;1.60;;
74789;SDS011;63318;52.406;13.416;2023-03-12T12:24:52;5.80;;;1.60;;
74789;SDS011;63318;52.406;13.416;2023-03-12T12:27:39;4.00;;;1.30;;
74789;SDS011;63318;52.406;13.416;2023-03-12T12:30:19;5.70;;;1.70;;
74789;SDS011;63318;52.406;13.416;2023-03-12T12:32:57;5.00;;;2.50;;
74789;SDS011;63318;52.406;13.416;2023-03-12T12:35:33;4.70;;;1.80;;
74789;SDS011;63318;52.406;13.416;2023-03-12T12:38:04;6.80;;;1.90;;
74789;SDS011;63318;52.406;13.416;2023-03-12T12:40:38;4.70;;;1.90;;
74789;SDS011;63318;52.406;13.416;2023-03-12T12:43:22;5.10;;;1.60;;
74789;SDS011;63318;52.406;13.416;2023-03-12T12:45:54;3.40;;;1.40;;
74789;SDS011;63318;52.406;13.416;2023-03-12T12:50:57;3.60;;;1.20;;
74789;SDS011;63318;52.406;13.416;2023-03-12T12:53:28;4.60;;;1.60;;
74789;SDS011;63318;52.406;13.416;2023-03-12T12:56:04;5.50;;;2.20;;
74789;SDS011;63318;52.406;13.416;2023-03-12T12:58:48;5.00;;;1.40;;
74789;SDS011;63318;52.406;13.416;2023-03-12T13:01:31;5.10;;;1.40;;
74789;SDS011;63318;52.406;13.416;2023-03-12T13:04:03;4.40;;;1.20;;
74789;SDS011;63318;52.406;13.416;2023-03-12T13:09:36;4.00;;;1.50;;
74789;SDS011;63318;52.406;13.416;2023-03-12T13:12:15;3.40;;;1.40;;
74789;SDS011;63318;52.406;13.416;2023-03-12T13:14:47;5.40;;;2.10;;
74789;SDS011;63318;52.406;13.416;2023-03-12T13:17:25;5.90;;;1.60;;
74789;SDS011;63318;52.406;13.416;2023-03-12T13:19:58;4.10;;;1.40;;
74789;SDS011;63318;52.406;13.416;2023-03-12T13:25:44;5.70;;;1.40;;
74789;SDS011;63318;52.406;13.416;2023-03-12T13:28:32;3.90;;;1.40;;
74789;SDS011;63318;52.406;13.416;2023-03-12T13:31:03;3.70;;;1.60;;
74789;SDS011;63318;52.406;13.416;2023-03-12T13:34:27;4.40;;;1.30;;
74789;SDS011;63318;52.406;13.416;2023-03-12T13:36:58;4.60;;;1.50;;
74789;SDS011;63318;52.406;13.416;2023-03-12T13:39:29;3.90;;;1.10;;
74789;SDS011;63318;52.406;13.416;2023-03-12T13:41:59;3.90;;;1.20;;
74789;SDS011;63318;52.406;13.416;2023-03-12T13:44:47;2.70;;;0.80;;
74789;SDS011;63318;52.406;13.416;2023-03-12T13:47:20;3.00;;;0.80;;
74789;SDS011;63318;52.406;13.416;2023-03-12T13:49:53;4.50;;;1.20;;
74789;SDS011;63318;52.406;13.416;2023-03-12T13:52:25;3.10;;;0.90;;
74789;SDS011;63318;52.406;13.416;2023-03-12T13:54:59;4.00;;;1.10;;
74789;SDS011;63318;52.406;13.416;2023-03-12T13:57:35;3.20;;;0.90;;
74789;SDS011;63318;52.406;13.416;2023-03-12T14:00:10;4.60;;;1.00;;
74789;SDS011;63318;52.406;13.416;2023-03-12T14:02:45;3.30;;;0.80;;
74789;SDS011;63318;52.406;13.416;2023-03-12T14:05:19;4.00;;;0.90;;
74789;SDS011;63318;52.406;13.416;2023-03-12T14:10:41;1.70;;;0.60;;
74789;SDS011;63318;52.406;13.416;2023-03-12T14:13:26;2.40;;;0.80;;
74789;SDS011;63318;52.406;13.416;2023-03-12T14:16:06;3.50;;;0.90;;
74789;SDS011;63318;52.406;13.416;2023-03-12T14:18:41;5.20;;;1.70;;
74789;SDS011;63318;52.406;13.416;2023-03-12T14:21:14;3.10;;;0.90;;
74789;SDS011;63318;52.406;13.416;2023-03-12T14:23:45;3.80;;;0.90;;
74789;SDS011;63318;52.406;13.416;2023-03-12T14:26:18;3.20;;;0.90;;
74789;SDS011;63318;52.406;13.416;2023-03-12T14:28:50;2.90;;;0.90;;
74789;SDS011;63318;52.406;13.416;2023-03-12T14:31:24;4.10;;;0.90;;
74789;SDS011;63318;52.406;13.416;2023-03-12T14:33:55;2.80;;;0.90;;
74789;SDS011;63318;52.406;13.416;2023-03-12T14:36:26;6.60;;;0.90;;
74789;SDS011;63318;52.406;13.416;2023-03-12T14:39:11;3.00;;;1.00;;
74789;SDS011;63318;52.406;13.416;2023-03-12T14:41:51;2.40;;;0.80;;
74789;SDS011;63318;52.406;13.416;2023-03-12T14:44:24;3.80;;;1.10;;
74789;SDS011;63318;52.406;13.416;2023-03-12T14:46:58;3.10;;;1.00;;
74789;SDS011;63318;52.406;13.416;2023-03-12T14:49:27;2.40;;;0.80;;
74789;SDS011;63318;52.406;13.416;2023-03-12T14:51:57;4.40;;;0.90;;
74789;SDS011;63318;52.406;13.416;2023-03-12T14:54:26;2.30;;;0.80;;
74789;SDS011;63318;52.406;13.416;2023-03-12T14:56:55;5.30;;;1.20;;
74789;SDS011;63318;52.406;13.416;2023-03-12T14:59:24;5.60;;;1.10;;
74789;SDS011;63318;52.406;13.416;2023-03-12T15:01:57;3.60;;;1.10;;
74789;SDS011;63318;52.406;13.416;2023-03-12T15:04:29;4.80;;;1.10;;
74789;SDS011;63318;52.406;13.416;2023-03-12T15:07:02;5.20;;;1.20;;
74789;SDS011;63318;52.406;13.416;2023-03-12T15:09:33;3.90;;;1.30;;
74789;SDS011;63318;52.406;13.416;2023-03-12T15:12:03;4.10;;;1.30;;
74789;SDS011;63318;52.406;13.416;2023-03-12T15:14:34;5.60;;;1.60;;
74789;SDS011;63318;52.406;13.416;2023-03-12T15:17:06;2.70;;;1.00;;
74789;SDS011;63318;52.406;13.416;2023-03-12T15:19:40;3.00;;;0.90;;
74789;SDS011;63318;52.406;13.416;2023-03-12T15:22:10;3.70;;;1.10;;
74789;SDS011;63318;52.406;13.416;2023-03-12T15:24:42;2.50;;;0.90;;
74789;SDS011;63318;52.406;13.416;2023-03-12T15:27:21;5.20;;;1.10;;
74789;SDS011;63318;52.406;13.416;2023-03-12T15:29:58;4.30;;;1.30;;